Time;durP1;ratioP1;P1;durP2;ratioP2;P2;SDS_P1;SDS_P2;PMS_P1;PMS_P2;Temp;Humidity;BMP_temperature;BMP_pressure;BME280_temperature;BME280_humidity;BME280_pressure;Samples;Min_cycle;Max_cycle;Signal;HPM_P1;HPM_P2
2023/05/07 00:02:03;;;;;;;5.70;5.20;;;18.40;97.00;;;;;;5055701;28;20468;-57
2023/05/07 00:04:35;;;;;;;7.57;5.50;;;18.40;97.00;;;;;;5055481;28;20489;-56
2023/05/07 00:07:02;;;;;;;5.23;4.73;;;18.40;97.00;;;;;;5055590;28;20853;-57
2023/05/07 00:09:29;;;;;;;6.90;5.40;;;18.40;97.00;;;;;;5055127;28;20536;-57
2023/05/07 00:11:55;;;;;;;5.70;5.13;;;18.40;97.00;;;;;;5055484;28;20495;-57
2023/05/07 00:14:22;;;;;;;6.70;5.73;;;18.40;97.00;;;;;;5055388;28;20488;-57
2023/05/07 00:16:49;;;;;;;6.10;5.60;;;18.40;97.40;;;;;;5055624;28;20453;-57
2023/05/07 00:19:17;;;;;;;6.40;5.87;;;18.40;96.90;;;;;;5055257;28;20442;-57
2023/05/07 00:21:43;;;;;;;6.70;5.93;;;18.40;96.90;;;;;;5055070;28;20943;-57
2023/05/07 00:24:10;;;;;;;6.10;5.50;;;18.40;97.10;;;;;;5054834;28;21003;-57
2023/05/07 00:26:37;;;;;;;6.13;5.63;;;18.40;97.10;;;;;;5055247;28;20886;-57
2023/05/07 00:29:03;;;;;;;6.47;5.87;;;18.40;97.20;;;;;;5055164;28;20454;-56
2023/05/07 00:31:30;;;;;;;6.50;6.00;;;18.40;97.30;;;;;;5055130;28;20503;-57
2023/05/07 00:33:57;;;;;;;6.03;5.30;;;18.30;97.30;;;;;;5055006;28;20464;-56
2023/05/07 00:36:26;;;;;;;6.20;5.60;;;18.30;97.30;;;;;;5055018;28;20449;-57
2023/05/07 00:38:55;;;;;;;6.00;5.40;;;18.30;97.30;;;;;;5054913;28;20449;-57
2023/05/07 00:41:22;;;;;;;6.00;5.60;;;18.30;97.40;;;;;;5054932;28;20449;-57
2023/05/07 00:43:51;;;;;;;5.20;4.70;;;18.30;97.40;;;;;;5054734;28;20490;-57
2023/05/07 00:46:18;;;;;;;6.70;5.53;;;18.30;97.40;;;;;;5054795;28;20845;-57
2023/05/07 00:48:45;;;;;;;6.70;6.10;;;18.30;97.50;;;;;;5054899;28;20453;-57
2023/05/07 00:51:12;;;;;;;5.43;4.93;;;18.30;97.50;;;;;;5054898;28;20449;-57
2023/05/07 00:53:40;;;;;;;5.70;5.13;;;18.30;97.50;;;;;;5054422;28;20943;-56
2023/05/07 00:56:07;;;;;;;6.60;5.97;;;18.20;97.40;;;;;;5054430;28;20959;-57
2023/05/07 00:58:34;;;;;;;6.53;5.87;;;18.30;97.50;;;;;;5054584;28;20456;-57
2023/05/07 01:01:01;;;;;;;7.90;6.00;;;18.20;97.50;;;;;;5054608;28;20515;-57
2023/05/07 01:03:28;;;;;;;7.43;5.60;;;18.20;97.60;;;;;;5054408;28;20489;-57
2023/05/07 01:05:56;;;;;;;6.80;6.17;;;18.20;97.70;;;;;;5054450;28;20445;-57
2023/05/07 01:08:24;;;;;;;6.87;6.17;;;18.20;97.80;;;;;;5054196;28;20472;-57
2023/05/07 01:10:53;;;;;;;6.83;6.07;;;18.20;97.80;;;;;;5054393;28;20507;-57
2023/05/07 01:13:20;;;;;;;6.53;5.93;;;18.20;97.80;;;;;;5054265;28;20453;-57
2023/05/07 01:15:47;;;;;;;7.10;6.50;;;18.20;97.70;;;;;;5054135;28;20531;-57
2023/05/07 01:18:14;;;;;;;7.40;6.37;;;18.20;97.80;;;;;;5053912;28;20966;-57
2023/05/07 01:20:41;;;;;;;6.83;5.53;;;18.20;97.80;;;;;;5054127;28;20456;-57
2023/05/07 01:23:11;;;;;;;6.40;5.80;;;18.10;97.90;;;;;;5054138;28;20449;-57
2023/05/07 01:25:38;;;;;;;6.53;5.93;;;18.10;98.00;;;;;;5054023;28;20468;-57
2023/05/07 01:28:05;;;;;;;7.10;6.40;;;18.10;98.00;;;;;;5054003;28;20481;-57
2023/05/07 01:30:33;;;;;;;6.23;5.73;;;18.10;98.10;;;;;;5053991;28;20449;-57
2023/05/07 01:33:05;;;;;;;6.70;6.10;;;18.10;98.10;;;;;;5054054;28;20824;-57
2023/05/07 01:35:38;;;;;;;6.63;6.03;;;18.10;98.10;;;;;;5054386;28;20560;-57
2023/05/07 01:38:05;;;;;;;7.27;6.60;;;18.00;98.10;;;;;;5053958;28;20434;-57
2023/05/07 01:40:35;;;;;;;7.03;6.33;;;18.00;98.10;;;;;;5053823;28;20461;-57
2023/05/07 01:43:02;;;;;;;7.03;6.43;;;18.00;98.10;;;;;;5053769;28;20888;-57
2023/05/07 01:45:30;;;;;;;6.20;5.70;;;18.00;98.20;;;;;;5053700;28;20492;-57
2023/05/07 01:47:59;;;;;;;6.10;5.50;;;18.00;98.20;;;;;;5053733;28;20465;-56
2023/05/07 01:50:26;;;;;;;7.57;6.87;;;18.00;98.00;;;;;;5053703;28;20453;-57
2023/05/07 01:52:53;;;;;;;5.80;5.30;;;18.00;98.10;;;;;;5053662;28;20453;-57
2023/05/07 01:55:20;;;;;;;5.40;5.00;;;18.00;98.00;;;;;;5053263;28;20473;-57
2023/05/07 01:57:48;;;;;;;5.90;5.30;;;18.00;98.10;;;;;;5053584;28;20452;-57
2023/05/07 02:00:15;;;;;;;6.30;5.70;;;17.90;98.10;;;;;;5053250;28;20449;-57
2023/05/07 02:02:42;;;;;;;7.80;5.97;;;17.90;98.10;;;;;;5054297;28;20454;-57
2023/05/07 02:05:09;;;;;;;6.83;5.80;;;17.90;98.10;;;;;;5054020;28;21033;-57
2023/05/07 02:07:36;;;;;;;7.43;6.00;;;17.90;98.20;;;;;;5053457;28;20449;-57
2023/05/07 02:10:03;;;;;;;5.93;5.43;;;17.90;98.20;;;;;;5053528;28;20429;-56
2023/05/07 02:12:30;;;;;;;6.10;5.60;;;17.90;98.30;;;;;;5053601;28;20442;-57
2023/05/07 02:14:58;;;;;;;6.90;6.30;;;17.80;98.30;;;;;;5053496;28;20473;-57
2023/05/07 02:17:25;;;;;;;6.47;5.67;;;17.80;98.30;;;;;;5053538;28;20453;-57
2023/05/07 02:19:51;;;;;;;7.17;6.57;;;17.80;98.30;;;;;;5053571;28;20536;-57
2023/05/07 02:22:18;;;;;;;8.23;7.43;;;17.80;98.60;;;;;;5053355;28;20456;-57
2023/05/07 02:24:45;;;;;;;6.87;6.27;;;17.80;98.20;;;;;;5053365;28;20493;-57
2023/05/07 02:27:12;;;;;;;7.73;6.87;;;17.80;98.20;;;;;;5053446;28;20449;-57
2023/05/07 02:29:38;;;;;;;8.67;7.40;;;17.70;98.10;;;;;;5053155;28;20503;-57
2023/05/07 02:32:06;;;;;;;7.90;7.10;;;17.80;98.10;;;;;;5053042;28;20464;-57
2023/05/07 02:34:33;;;;;;;7.43;6.83;;;17.70;98.00;;;;;;5053371;28;20457;-57
2023/05/07 02:37:00;;;;;;;7.67;6.80;;;17.70;98.00;;;;;;5053508;28;20503;-57
2023/05/07 02:39:26;;;;;;;8.27;7.57;;;17.70;98.10;;;;;;5053205;28;20449;-57
2023/05/07 02:41:53;;;;;;;10.53;6.97;;;17.70;98.10;;;;;;5053181;28;20456;-57
2023/05/07 02:44:20;;;;;;;6.73;6.13;;;17.70;98.20;;;;;;5053246;28;20485;-57
2023/05/07 02:46:47;;;;;;;9.10;7.70;;;17.60;98.20;;;;;;5053330;28;20859;-57
2023/05/07 02:49:14;;;;;;;6.87;6.23;;;17.60;98.20;;;;;;5053204;28;20454;-57
2023/05/07 02:51:41;;;;;;;7.77;6.97;;;17.60;98.30;;;;;;5053055;28;20449;-57
2023/05/07 02:54:08;;;;;;;5.93;5.40;;;17.60;98.40;;;;;;5052929;28;20469;-56
2023/05/07 02:56:35;;;;;;;7.43;6.57;;;17.60;98.50;;;;;;5052967;28;20499;-57
2023/05/07 02:59:01;;;;;;;7.13;6.53;;;17.60;98.50;;;;;;5053027;28;20454;-57
2023/05/07 03:01:28;;;;;;;6.73;6.17;;;17.60;98.60;;;;;;5052919;28;20457;-57
2023/05/07 03:03:55;;;;;;;7.10;6.43;;;17.60;98.70;;;;;;5052724;28;20465;-57
2023/05/07 03:06:23;;;;;;;6.60;6.00;;;17.50;98.60;;;;;;5052593;28;20943;-57
2023/05/07 03:08:50;;;;;;;7.37;6.50;;;17.50;98.70;;;;;;5052600;28;20475;-57
2023/05/07 03:11:16;;;;;;;7.00;6.17;;;17.50;98.60;;;;;;5054447;28;20457;-57
2023/05/07 03:13:43;;;;;;;6.53;5.93;;;17.50;98.70;;;;;;5056651;28;20461;-57
2023/05/07 03:16:10;;;;;;;6.37;5.80;;;17.50;98.80;;;;;;5056719;28;20453;-57
2023/05/07 03:18:36;;;;;;;7.00;6.40;;;17.50;98.80;;;;;;5056323;28;20453;-57
2023/05/07 03:21:03;;;;;;;5.60;5.20;;;17.50;98.90;;;;;;5056148;28;20977;-56
2023/05/07 03:23:31;;;;;;;6.73;5.67;;;17.50;98.90;;;;;;5056545;28;20454;-57
2023/05/07 03:25:58;;;;;;;5.70;5.30;;;17.50;99.00;;;;;;5056971;28;20507;-57
2023/05/07 03:28:24;;;;;;;6.80;5.97;;;17.50;99.10;;;;;;5056496;28;20457;-57
2023/05/07 03:30:51;;;;;;;6.43;5.70;;;17.40;99.10;;;;;;5056431;28;20457;-57
2023/05/07 03:33:18;;;;;;;7.40;6.70;;;17.40;99.20;;;;;;5056459;28;20452;-57
2023/05/07 03:35:45;;;;;;;6.70;5.73;;;17.40;99.10;;;;;;5056462;28;20480;-57
2023/05/07 03:38:11;;;;;;;5.43;4.93;;;17.40;99.20;;;;;;5056131;28;20449;-57
2023/05/07 03:40:39;;;;;;;6.33;5.73;;;17.40;99.00;;;;;;5056509;28;20454;-57
2023/05/07 03:43:06;;;;;;;6.20;5.70;;;17.40;98.90;;;;;;5056557;28;20441;-57
2023/05/07 03:45:33;;;;;;;7.17;5.23;;;17.40;99.00;;;;;;5056468;28;20480;-57
2023/05/07 03:47:59;;;;;;;5.70;5.03;;;17.40;99.30;;;;;;5056685;28;20456;-57
2023/05/07 03:50:26;;;;;;;8.43;5.50;;;17.30;99.00;;;;;;5056455;28;20453;-57
2023/05/07 03:52:53;;;;;;;6.50;5.90;;;17.40;99.10;;;;;;5056414;28;20458;-57
2023/05/07 03:55:20;;;;;;;6.90;6.30;;;17.30;98.90;;;;;;5055971;28;20466;-57
2023/05/07 03:57:48;;;;;;;7.10;6.50;;;17.30;98.90;;;;;;5055890;28;20483;-57
2023/05/07 04:00:15;;;;;;;7.00;6.30;;;17.30;99.00;;;;;;5055884;28;20449;-57
2023/05/07 04:02:41;;;;;;;6.50;5.73;;;17.30;99.10;;;;;;5055652;28;20453;-57
2023/05/07 04:05:09;;;;;;;7.37;6.60;;;17.30;99.10;;;;;;5055489;28;20492;-57
2023/05/07 04:07:35;;;;;;;7.57;6.87;;;17.30;99.10;;;;;;5055398;28;20529;-57
2023/05/07 04:10:02;;;;;;;8.40;5.47;;;17.30;99.10;;;;;;5055559;28;20438;-57
2023/05/07 04:12:30;;;;;;;7.03;5.67;;;17.30;99.10;;;;;;5055571;28;20450;-57
2023/05/07 04:14:58;;;;;;;6.27;5.70;;;17.20;99.00;;;;;;5055481;28;20474;-57
2023/05/07 04:17:25;;;;;;;7.00;5.90;;;17.30;99.00;;;;;;5055464;28;20462;-57
2023/05/07 04:19:51;;;;;;;5.97;5.47;;;17.30;99.10;;;;;;5055403;28;20453;-57
2023/05/07 04:22:18;;;;;;;8.13;4.80;;;17.30;99.00;;;;;;5054879;28;20455;-57
2023/05/07 04:24:45;;;;;;;6.10;5.53;;;17.30;98.90;;;;;;5055506;28;20493;-57
2023/05/07 04:27:11;;;;;;;6.03;5.17;;;17.30;98.90;;;;;;5054944;28;20544;-57
2023/05/07 04:29:41;;;;;;;5.90;4.50;;;17.30;98.80;;;;;;5054857;28;20970;-57
2023/05/07 04:32:10;;;;;;;6.23;5.03;;;17.30;98.80;;;;;;5054894;28;20963;-57
2023/05/07 04:34:36;;;;;;;6.53;5.60;;;17.40;98.80;;;;;;5055032;28;20470;-57
2023/05/07 04:37:03;;;;;;;6.53;5.93;;;17.40;98.80;;;;;;5055107;28;20449;-57
2023/05/07 04:39:30;;;;;;;6.00;5.50;;;17.40;98.80;;;;;;5054997;28;20454;-57
2023/05/07 04:41:56;;;;;;;6.50;5.90;;;17.40;98.70;;;;;;5054937;28;20507;-57
2023/05/07 04:44:23;;;;;;;6.10;5.50;;;17.40;98.70;;;;;;5054468;28;20979;-57
2023/05/07 04:46:50;;;;;;;9.60;6.67;;;17.40;98.80;;;;;;5054834;28;20523;-57
2023/05/07 04:49:18;;;;;;;6.30;5.70;;;17.50;98.80;;;;;;5054913;28;20449;-57
2023/05/07 04:51:45;;;;;;;6.77;6.17;;;17.50;98.80;;;;;;5054773;28;20822;-57
2023/05/07 04:54:11;;;;;;;8.73;7.87;;;17.50;98.80;;;;;;5054660;28;20465;-57
2023/05/07 04:56:38;;;;;;;7.40;5.70;;;17.50;98.80;;;;;;5054642;28;20437;-57
2023/05/07 04:59:05;;;;;;;6.27;5.67;;;17.50;98.80;;;;;;5054653;28;20445;-57
2023/05/07 05:01:32;;;;;;;8.30;6.83;;;17.60;98.70;;;;;;5054887;28;20911;-57
2023/05/07 05:03:59;;;;;;;7.03;5.57;;;17.60;98.70;;;;;;5055737;28;20865;-57
2023/05/07 05:06:27;;;;;;;9.07;6.90;;;17.60;98.70;;;;;;5055470;28;20485;-57
2023/05/07 05:08:54;;;;;;;6.80;6.20;;;17.70;98.70;;;;;;5054682;28;20462;-57
2023/05/07 05:11:21;;;;;;;5.93;5.43;;;17.70;98.60;;;;;;5054881;28;20453;-57
2023/05/07 05:13:48;;;;;;;6.73;6.23;;;17.80;98.60;;;;;;5054605;28;20476;-57
2023/05/07 05:16:15;;;;;;;6.00;5.40;;;17.80;98.50;;;;;;5054670;28;20449;-57
2023/05/07 05:18:42;;;;;;;5.40;4.90;;;17.80;98.40;;;;;;5054377;28;20441;-57
2023/05/07 05:21:09;;;;;;;6.40;5.80;;;17.90;98.20;;;;;;5054443;28;20457;-57
2023/05/07 05:23:37;;;;;;;5.60;5.10;;;17.90;98.10;;;;;;5054375;28;20457;-57
2023/05/07 05:26:03;;;;;;;7.70;5.20;;;17.90;98.10;;;;;;5054309;28;20488;-57
2023/05/07 05:28:30;;;;;;;5.77;5.23;;;17.90;97.80;;;;;;5054319;28;20461;-57
2023/05/07 05:30:57;;;;;;;7.63;5.10;;;18.00;97.70;;;;;;5054219;28;20449;-57
2023/05/07 05:33:23;;;;;;;7.30;4.80;;;18.00;97.60;;;;;;5053090;28;20939;-57
2023/05/07 05:35:50;;;;;;;4.83;4.43;;;18.10;97.60;;;;;;5054008;28;20465;-57
2023/05/07 05:38:17;;;;;;;6.30;5.23;;;18.10;97.40;;;;;;5054107;28;20452;-57
2023/05/07 05:40:45;;;;;;;6.40;5.73;;;18.20;97.50;;;;;;5053923;28;20471;-57
2023/05/07 05:43:12;;;;;;;5.40;5.00;;;18.20;97.30;;;;;;5053715;28;20974;-57
2023/05/07 05:45:38;;;;;;;7.23;5.33;;;18.30;97.30;;;;;;5053594;28;21030;-57
2023/05/07 05:48:06;;;;;;;4.77;4.40;;;18.30;97.20;;;;;;5053878;28;20450;-57
2023/05/07 05:50:32;;;;;;;5.80;4.57;;;18.40;97.00;;;;;;5053527;28;20865;-57
2023/05/07 05:52:59;;;;;;;7.37;4.80;;;18.40;96.70;;;;;;5054132;28;20457;-57
2023/05/07 05:55:26;;;;;;;4.73;4.17;;;18.50;96.60;;;;;;5053868;28;20461;-57
2023/05/07 05:57:54;;;;;;;5.23;4.63;;;18.60;96.50;;;;;;5053668;28;20966;-57
2023/05/07 06:00:22;;;;;;;5.53;5.07;;;18.60;96.20;;;;;;5053413;28;20978;-57
2023/05/07 06:02:49;;;;;;;5.93;5.33;;;18.60;96.10;;;;;;5053333;28;20454;-57
2023/05/07 06:05:15;;;;;;;5.10;4.60;;;18.70;96.10;;;;;;5053481;28;20481;-57
2023/05/07 06:07:42;;;;;;;5.07;4.67;;;18.70;96.00;;;;;;5053146;28;20449;-57
2023/05/07 06:10:09;;;;;;;4.80;4.40;;;18.80;95.80;;;;;;5053445;28;20820;-57
2023/05/07 06:12:36;;;;;;;3.97;3.60;;;18.80;95.70;;;;;;5053359;28;20474;-57
2023/05/07 06:15:05;;;;;;;3.83;3.53;;;18.90;95.60;;;;;;5053330;28;20815;-57
2023/05/07 06:17:31;;;;;;;5.57;3.97;;;18.90;95.40;;;;;;5053279;28;20461;-57
2023/05/07 06:19:58;;;;;;;4.27;3.83;;;19.00;95.30;;;;;;5053315;28;20449;-57
2023/05/07 06:22:25;;;;;;;8.73;4.13;;;19.10;95.10;;;;;;5053237;28;20445;-57
2023/05/07 06:24:51;;;;;;;5.17;4.07;;;19.30;95.10;;;;;;5053051;28;20461;-57
2023/05/07 06:27:18;;;;;;;4.93;3.90;;;19.40;95.00;;;;;;5053136;28;20449;-57
2023/05/07 06:29:45;;;;;;;5.50;3.77;;;19.50;94.70;;;;;;5053171;28;20466;-57
2023/05/07 06:32:14;;;;;;;5.00;4.47;;;19.60;94.20;;;;;;5053123;28;20449;-57
2023/05/07 06:34:41;;;;;;;4.37;4.07;;;19.70;93.90;;;;;;5053045;28;20523;-57
2023/05/07 06:37:08;;;;;;;5.30;4.20;;;19.80;93.80;;;;;;5053109;28;20445;-57
2023/05/07 06:39:35;;;;;;;5.23;4.00;;;19.90;93.60;;;;;;5053076;28;20452;-57
2023/05/07 06:42:02;;;;;;;5.60;4.00;;;19.90;93.30;;;;;;5053017;28;20778;-57
2023/05/07 06:44:29;;;;;;;3.10;2.80;;;19.90;92.90;;;;;;5053325;28;20495;-57
2023/05/07 06:46:55;;;;;;;6.23;3.37;;;20.00;92.50;;;;;;5057029;28;20485;-57
2023/05/07 06:49:23;;;;;;;4.40;4.00;;;20.00;92.30;;;;;;5056720;28;20939;-57
2023/05/07 06:51:50;;;;;;;7.13;4.00;;;20.10;92.40;;;;;;5056716;28;20848;-57
2023/05/07 06:54:17;;;;;;;4.70;4.13;;;20.20;92.40;;;;;;5056900;28;20473;-57
2023/05/07 06:56:44;;;;;;;5.10;4.60;;;20.30;92.40;;;;;;5057925;28;20446;-57
2023/05/07 06:59:11;;;;;;;5.57;4.40;;;20.40;92.30;;;;;;5056946;28;20453;-57
2023/05/07 07:01:38;;;;;;;6.43;4.20;;;20.60;92.30;;;;;;5056855;28;20453;-57
2023/05/07 07:04:05;;;;;;;5.33;4.43;;;20.70;92.10;;;;;;5056728;28;20504;-57
2023/05/07 07:06:33;;;;;;;4.10;3.70;;;20.90;91.70;;;;;;5056669;28;20473;-57
2023/05/07 07:09:00;;;;;;;4.80;3.87;;;21.00;91.30;;;;;;5056378;28;21024;-57
2023/05/07 07:11:27;;;;;;;3.80;3.40;;;21.10;90.70;;;;;;5056637;28;20449;-57
2023/05/07 07:13:54;;;;;;;4.33;4.03;;;21.30;90.40;;;;;;5056574;28;20469;-57
2023/05/07 07:16:21;;;;;;;4.73;4.27;;;21.40;90.10;;;;;;5057062;28;20499;-57
2023/05/07 07:18:47;;;;;;;3.33;3.00;;;21.50;89.60;;;;;;5056592;28;20465;-57
2023/05/07 07:21:14;;;;;;;4.30;3.20;;;21.60;89.20;;;;;;5056526;28;20453;-57
2023/05/07 07:23:42;;;;;;;4.20;3.80;;;21.70;89.10;;;;;;5056396;28;20449;-57
2023/05/07 07:26:09;;;;;;;3.70;3.40;;;21.80;88.70;;;;;;5056363;28;20865;-57
2023/05/07 07:28:36;;;;;;;3.47;3.17;;;21.90;88.00;;;;;;5055964;28;20813;-57
2023/05/07 07:31:02;;;;;;;5.23;4.00;;;22.10;87.40;;;;;;5056216;28;20448;-57
2023/05/07 07:33:29;;;;;;;3.80;3.40;;;22.20;86.80;;;;;;5055893;28;20823;-57
2023/05/07 07:35:56;;;;;;;5.30;4.23;;;22.30;85.40;;;;;;5055876;28;20457;-57
2023/05/07 07:38:23;;;;;;;5.00;3.90;;;22.40;84.50;;;;;;5056251;28;20840;-57
2023/05/07 07:40:51;;;;;;;3.83;3.40;;;22.40;83.60;;;;;;5056014;28;20450;-57
2023/05/07 07:43:18;;;;;;;3.57;3.23;;;22.50;82.90;;;;;;5056095;28;20453;-57
2023/05/07 07:45:45;;;;;;;4.13;3.63;;;22.60;83.10;;;;;;5055868;28;20484;-57
2023/05/07 07:48:12;;;;;;;2.93;2.73;;;22.80;83.10;;;;;;5055637;28;20883;-57
2023/05/07 07:50:39;;;;;;;2.70;2.50;;;23.00;82.70;;;;;;5055853;28;20454;-57
2023/05/07 07:53:06;;;;;;;4.20;3.17;;;23.10;82.10;;;;;;5055905;28;20445;-57
2023/05/07 07:55:32;;;;;;;2.47;2.10;;;23.30;81.30;;;;;;5055445;28;20524;-57
2023/05/07 07:58:00;;;;;;;3.77;3.20;;;23.40;79.40;;;;;;5054730;28;20959;-57
2023/05/07 08:00:27;;;;;;;3.90;2.60;;;23.60;78.60;;;;;;5055496;28;20943;-58
2023/05/07 08:02:53;;;;;;;3.97;3.03;;;23.70;78.60;;;;;;5055840;28;20480;-58
2023/05/07 08:05:20;;;;;;;2.90;2.70;;;23.90;78.90;;;;;;5055794;28;20465;-57
2023/05/07 08:07:51;;;;;;;3.40;2.97;;;24.00;78.30;;;;;;5055177;28;20486;-56
2023/05/07 08:10:20;;;;;;;3.50;3.00;;;24.10;77.60;;;;;;5055653;28;20439;-56
2023/05/07 08:12:47;;;;;;;3.77;2.63;;;24.10;76.80;;;;;;5055710;28;20447;-56
2023/05/07 08:15:16;;;;;;;4.70;3.40;;;24.30;76.60;;;;;;5055805;28;20477;-57
2023/05/07 08:17:43;;;;;;;2.87;2.67;;;24.40;76.50;;;;;;5055088;28;20962;-57
2023/05/07 08:20:10;;;;;;;3.63;3.33;;;24.50;76.00;;;;;;5055415;28;20855;-57
2023/05/07 08:22:37;;;;;;;3.63;2.93;;;24.60;75.40;;;;;;5055532;28;20453;-57
2023/05/07 08:25:04;;;;;;;3.17;2.87;;;24.80;74.50;;;;;;5055202;28;20553;-57
2023/05/07 08:27:31;;;;;;;3.13;2.80;;;24.90;73.80;;;;;;5055021;28;21026;-58
2023/05/07 08:29:58;;;;;;;3.87;3.13;;;25.10;73.30;;;;;;5055266;28;20460;-58
2023/05/07 08:32:26;;;;;;;3.10;2.80;;;25.20;72.80;;;;;;5055169;28;20461;-58
2023/05/07 08:34:52;;;;;;;2.87;2.57;;;25.40;72.60;;;;;;5054692;28;20879;-58
2023/05/07 08:37:19;;;;;;;3.80;2.90;;;25.70;72.40;;;;;;5055059;28;20448;-58
2023/05/07 08:39:46;;;;;;;2.90;2.47;;;25.90;72.10;;;;;;5054771;28;20828;-58
2023/05/07 08:42:16;;;;;;;3.47;3.17;;;26.20;71.90;;;;;;5054822;28;20449;-58
2023/05/07 08:44:46;;;;;;;3.07;2.87;;;26.60;69.60;;;;;;5055090;28;20500;-58
2023/05/07 08:47:13;;;;;;;3.17;2.50;;;26.90;66.40;;;;;;5055720;28;20524;-58
2023/05/07 08:49:41;;;;;;;4.53;2.97;;;27.00;62.90;;;;;;5054787;28;20441;-58
2023/05/07 08:52:08;;;;;;;3.67;2.87;;;27.10;61.10;;;;;;5054803;28;20826;-58
2023/05/07 08:54:37;;;;;;;5.43;3.17;;;27.00;60.10;;;;;;5054684;28;20477;-58
2023/05/07 08:57:04;;;;;;;3.07;2.40;;;26.90;60.60;;;;;;5054483;28;20931;-58
2023/05/07 08:59:30;;;;;;;5.83;3.00;;;26.70;60.90;;;;;;5054842;28;20476;-57
2023/05/07 09:01:57;;;;;;;2.87;2.53;;;26.60;61.60;;;;;;5054584;28;20476;-57
2023/05/07 09:04:24;;;;;;;10.77;2.47;;;26.50;61.70;;;;;;5054680;28;20520;-58
2023/05/07 09:06:52;;;;;;;2.93;1.90;;;26.60;61.10;;;;;;5054884;28;20481;-57
2023/05/07 09:09:19;;;;;;;2.27;1.87;;;26.60;60.50;;;;;;5054079;28;20468;-57
2023/05/07 09:11:46;;;;;;;3.27;1.70;;;26.60;60.30;;;;;;5054261;28;20513;-57
2023/05/07 09:14:12;;;;;;;4.00;2.37;;;26.70;60.10;;;;;;5054357;28;20868;-56
2023/05/07 09:16:39;;;;;;;2.33;2.00;;;26.80;59.50;;;;;;5054360;28;20512;-57
2023/05/07 09:19:06;;;;;;;2.10;1.90;;;27.00;59.60;;;;;;5054268;28;20453;-57
2023/05/07 09:21:33;;;;;;;3.33;1.87;;;27.10;58.50;;;;;;5054285;28;20457;-57
2023/05/07 09:24:01;;;;;;;4.40;2.47;;;27.20;58.10;;;;;;5054056;28;20815;-57
2023/05/07 09:26:28;;;;;;;4.47;2.17;;;27.30;57.40;;;;;;5054081;28;20490;-57
2023/05/07 09:28:54;;;;;;;2.13;2.03;;;27.50;57.70;;;;;;5054054;28;20449;-57
2023/05/07 09:31:23;;;;;;;2.13;1.60;;;27.80;56.40;;;;;;5054061;28;20449;-58
2023/05/07 09:33:49;;;;;;;3.10;1.97;;;28.10;55.00;;;;;;5053736;28;21014;-58
2023/05/07 09:36:17;;;;;;;1.60;1.43;;;28.20;53.00;;;;;;5053712;28;20963;-57
2023/05/07 09:38:43;;;;;;;3.40;1.07;;;28.30;52.40;;;;;;5053967;28;20472;-58
2023/05/07 09:41:13;;;;;;;1.60;1.40;;;28.40;52.10;;;;;;5053980;28;20445;-57
2023/05/07 09:43:41;;;;;;;5.37;1.50;;;28.50;51.20;;;;;;5053795;28;20449;-57
2023/05/07 09:46:09;;;;;;;4.70;1.90;;;28.60;51.00;;;;;;5053708;28;20460;-57
2023/05/07 09:48:39;;;;;;;2.23;1.43;;;28.80;49.90;;;;;;5053777;28;20811;-58
2023/05/07 09:51:16;;;;;;;4.57;2.10;;;28.90;50.40;;;;;;5053731;28;20536;-58
2023/05/07 09:53:45;;;;;;;2.93;1.40;;;29.10;50.90;;;;;;5053799;28;20429;-58
2023/05/07 09:56:15;;;;;;;2.87;1.47;;;29.40;50.50;;;;;;5053629;28;20445;-57
2023/05/07 09:58:43;;;;;;;1.37;1.20;;;29.60;49.40;;;;;;5053636;28;20434;-57
2023/05/07 10:01:11;;;;;;;1.77;1.13;;;29.90;48.60;;;;;;5053271;28;20923;-58
2023/05/07 10:03:41;;;;;;;1.60;1.50;;;30.10;47.40;;;;;;5053546;28;20460;-58
2023/05/07 10:06:09;;;;;;;1.87;1.10;;;30.10;45.50;;;;;;5053487;28;20445;-58
2023/05/07 10:08:36;;;;;;;2.87;1.70;;;29.90;46.30;;;;;;5053117;28;20492;-58
2023/05/07 10:11:04;;;;;;;3.53;1.30;;;29.90;46.10;;;;;;5053379;28;20467;-58
2023/05/07 10:13:34;;;;;;;1.77;0.97;;;29.60;45.80;;;;;;5053003;28;20943;-57
2023/05/07 10:16:02;;;;;;;2.43;1.23;;;29.50;46.40;;;;;;5053335;28;20457;-58
2023/05/07 10:18:32;;;;;;;4.00;1.33;;;29.40;45.90;;;;;;5053246;28;20452;-57
2023/05/07 10:21:05;;;;;;;1.73;1.23;;;29.20;45.60;;;;;;5053761;28;20769;-57
2023/05/07 10:23:33;;;;;;;3.77;1.27;;;29.10;46.10;;;;;;5052958;28;20907;-57
2023/05/07 10:26:02;;;;;;;1.50;1.20;;;29.10;46.80;;;;;;5052998;28;20481;-57
2023/05/07 10:28:31;;;;;;;3.53;1.40;;;29.10;46.80;;;;;;5053220;28;20442;-57
2023/05/07 10:31:12;;;;;;;10.77;1.90;;;29.20;47.30;;;;;;5053206;28;20489;-57
2023/05/07 10:33:41;;;;;;;14.10;2.47;;;29.30;46.70;;;;;;5052826;28;20429;-57
2023/05/07 10:36:07;;;;;;;5.27;1.83;;;29.50;46.60;;;;;;5053102;28;20455;-57
2023/05/07 10:38:35;;;;;;;1.63;1.43;;;29.70;46.00;;;;;;5052959;28;20943;-57
2023/05/07 10:41:04;;;;;;;1.57;1.43;;;29.90;44.50;;;;;;5052791;28;20943;-58
2023/05/07 10:43:41;;;;;;;1.43;1.27;;;30.10;43.60;;;;;;5053546;28;20457;-57
2023/05/07 10:46:15;;;;;;;3.20;1.60;;;30.30;43.70;;;;;;5052816;28;20806;-57
2023/05/07 10:49:11;;;;;;;3.03;1.07;;;30.40;44.50;;;;;;5052718;28;20911;-58
2023/05/07 10:51:38;;;;;;;6.27;1.43;;;30.60;42.70;;;;;;5052718;28;20459;-56
2023/05/07 10:54:24;;;;;;;1.70;1.20;;;30.60;42.20;;;;;;5052956;28;20493;-56
2023/05/07 10:56:51;;;;;;;1.30;1.20;;;30.60;41.80;;;;;;5053245;28;20429;-57
2023/05/07 10:59:41;;;;;;;1.27;1.00;;;30.60;42.40;;;;;;5053146;28;20455;-56
2023/05/07 11:02:10;;;;;;;1.20;1.10;;;30.70;42.80;;;;;;5053167;28;20480;-56
2023/05/07 11:04:38;;;;;;;1.77;1.17;;;30.90;41.80;;;;;;5053434;28;20472;-56
2023/05/07 11:07:35;;;;;;;1.30;1.00;;;30.90;41.60;;;;;;5054520;28;20542;-56
2023/05/07 11:10:05;;;;;;;3.37;1.03;;;31.00;41.10;;;;;;4993095;28;20440;-55
2023/05/07 11:12:54;;;;;;;1.90;1.13;;;31.00;39.70;;;;;;5040276;28;20464;-56
2023/05/07 11:15:38;;;;;;;2.47;1.43;;;30.90;39.60;;;;;;5052933;28;21036;-55
2023/05/07 11:18:06;;;;;;;1.07;1.00;;;30.90;39.50;;;;;;5053139;28;20440;-56
2023/05/07 11:20:51;;;;;;;1.43;1.00;;;30.80;40.10;;;;;;5053493;28;20449;-56
2023/05/07 11:24:09;;;;;;;1.50;1.30;;;30.70;40.00;;;;;;5053017;28;20480;-56
2023/05/07 11:26:44;;;;;;;1.00;0.90;;;30.70;40.30;;;;;;5053071;28;20422;-55
2023/05/07 11:29:12;;;;;;;1.37;1.10;;;30.60;40.50;;;;;;5052437;28;20833;-55
2023/05/07 11:31:39;;;;;;;2.67;1.50;;;30.60;41.40;;;;;;5053317;28;20452;-55
2023/05/07 11:34:08;;;;;;;1.70;1.40;;;30.50;41.50;;;;;;5056292;28;20990;-55
2023/05/07 11:36:35;;;;;;;1.90;1.33;;;30.40;41.30;;;;;;5056623;28;20444;-56
2023/05/07 11:39:02;;;;;;;1.50;1.40;;;30.40;41.30;;;;;;5056473;28;20455;-56
2023/05/07 11:41:35;;;;;;;1.73;1.23;;;30.50;41.50;;;;;;5056421;28;20519;-56
2023/05/07 11:44:02;;;;;;;2.17;1.30;;;30.50;41.00;;;;;;5056285;28;20503;-55
2023/05/07 11:46:29;;;;;;;1.97;1.40;;;30.50;40.20;;;;;;5056060;28;20448;-56
2023/05/07 11:48:57;;;;;;;1.27;1.10;;;30.60;40.50;;;;;;5056272;28;20448;-56
2023/05/07 11:51:29;;;;;;;2.10;1.40;;;30.60;41.90;;;;;;5056276;28;20444;-56
2023/05/07 11:53:56;;;;;;;2.57;1.30;;;30.60;41.70;;;;;;5056219;28;20465;-55
2023/05/07 11:56:23;;;;;;;2.87;1.73;;;30.30;42.80;;;;;;5056223;28;20449;-56
2023/05/07 11:58:51;;;;;;;2.20;1.73;;;30.30;43.40;;;;;;5055823;28;20953;-55
2023/05/07 12:01:18;;;;;;;1.70;1.57;;;30.10;43.10;;;;;;5056042;28;20821;-56
2023/05/07 12:03:46;;;;;;;1.50;1.40;;;30.00;43.50;;;;;;5056172;28;20496;-56
2023/05/07 12:06:15;;;;;;;1.73;1.37;;;30.00;43.80;;;;;;5056213;28;20540;-57
2023/05/07 12:08:44;;;;;;;3.37;1.73;;;29.90;44.40;;;;;;5055909;28;20503;-57
2023/05/07 12:11:15;;;;;;;3.00;1.20;;;29.70;44.60;;;;;;5055709;28;20471;-56
2023/05/07 12:13:42;;;;;;;1.57;1.47;;;29.60;45.50;;;;;;5055441;28;21026;-56
2023/05/07 12:16:10;;;;;;;1.77;1.57;;;29.50;45.70;;;;;;5055702;28;20453;-56
2023/05/07 12:18:37;;;;;;;2.53;1.80;;;29.40;45.70;;;;;;5055358;28;20962;-56
2023/05/07 12:21:05;;;;;;;6.00;1.87;;;29.40;45.30;;;;;;5055384;28;20950;-56
2023/05/07 12:23:33;;;;;;;3.20;1.70;;;29.30;45.60;;;;;;5056011;28;20449;-56
2023/05/07 12:26:01;;;;;;;3.57;1.50;;;29.30;45.60;;;;;;5055450;28;20448;-56
2023/05/07 12:28:28;;;;;;;3.13;1.37;;;29.10;46.50;;;;;;5055366;28;20487;-56
2023/05/07 12:30:55;;;;;;;1.53;1.43;;;29.00;47.20;;;;;;5055322;28;20446;-56
2023/05/07 12:33:25;;;;;;;1.97;1.40;;;28.70;47.30;;;;;;5054636;28;20450;-56
2023/05/07 12:35:55;;;;;;;4.03;1.97;;;28.50;48.50;;;;;;5055175;28;20548;-56
2023/05/07 12:38:21;;;;;;;1.83;1.60;;;28.40;48.70;;;;;;5055137;28;20446;-56
2023/05/07 12:40:50;;;;;;;1.93;1.60;;;28.20;49.00;;;;;;5054989;28;20475;-55
2023/05/07 12:43:19;;;;;;;1.90;1.70;;;28.20;49.30;;;;;;5054566;28;20438;-56
2023/05/07 12:45:47;;;;;;;2.60;1.60;;;28.10;49.20;;;;;;5054867;28;20476;-56
2023/05/07 12:48:14;;;;;;;3.37;1.60;;;28.10;49.30;;;;;;5054822;28;20910;-56
2023/05/07 12:50:41;;;;;;;3.03;1.87;;;28.10;48.70;;;;;;5054847;28;20446;-56